메인 페이지
METAR-TAF:

METAR-TAF

공항 :

안토파가스타, 칠레

위도: 23-26S, 경도: 070-26W, 고도: 135m

현재 날씨관측

예보는 1 시간 0분 전, 18:00시(UTC)에 발표되었습니다.
남남서15kt
온도 21°C
습도 64%
기압 1015 hPa
시정 10km 이상
고도 2700ft 상공 구름 조금
고도 3000ft 상공 구름 많음

METAR: SCFA 161800Z 20015KT 9999 FEW027 BKN030 21/14 Q1015 NOSIG

시각: 16:00 (19:00 UTC)

예보

예보는 2 시간 49분 전, 16:11시(UTC)에 발표되었습니다.
예보 대상 시간: 16일 18시부터 17일 18시까지 (UTC)
남남서16kt
시정 10km 이상
고도 2700ft 상공 구름 조금
고도 30000ft 상공 구름 보통
전환 중
17일 00시부터 17일 02시까지 (UTC)
4kt
고도 2600ft 상공 구름 많음
전환 중
17일 10시부터 17일 12시까지 (UTC)
고도 2800ft 상공 구름 조금
전환 중
17일 14시부터 17일 16시까지 (UTC)
남남서14kt

TAF: SCFA 161611Z 1618/1718 21016KT 9999 FEW027 SCT300 TX23/1618Z TN17 /1706Z BECMG 1700/1702 17004KT BKN026 BECMG 1710/1712 FEW028 BECMG 1714/1716 20014KT

4,000개 이상의 공항 관측 자료 및 예보 (METAR 및 TAF 보고).

지도상에서 검색 가능한 기상관측소가 노란 점과 빨간 점으로 표시되어 있습니다.

기상관측소 명을 보려면 표시 위로 마우스를 이동하세요.

날씨 관측과 예보를 보려면 클릭하세요.

지도 변경 : 확대하려면 엑스 표시가 있는 녹색 버튼, 축소하려면 빼기 표시가 있는 녹색 버튼, 다음 페이지의 지도를 보려면 녹색 화살표를 클릭하세요.


METAR-TAF: